Time;durP1;ratioP1;P1;durP2;ratioP2;P2;SDS_P1;SDS_P2;PMS_P1;PMS_P2;Temp;Humidity;BMP_temperature;BMP_pressure;BME280_temperature;BME280_humidity;BME280_pressure;Samples;Min_cycle;Max_cycle;Signal;HPM_P1;HPM_P2
2021/06/24 00:00:48;;;;;;;;;;;;;;;20.55;100.00;99453.25;5013846;28;19924;-81
2021/06/24 00:03:13;;;;;;;;;;;;;;;20.19;100.00;99446.88;5031223;28;19979;-81
2021/06/24 00:05:39;;;;;;;;;;;;;;;19.88;100.00;99455.84;5030823;28;19965;-81
2021/06/24 00:08:05;;;;;;;;;;;;;;;19.79;100.00;99457.25;5031321;28;19921;-81
2021/06/24 00:10:31;;;;;;;;;;;;;;;18.97;100.00;99461.34;5030840;28;20429;-81
2021/06/24 00:12:56;;;;;;;;;;;;;;;19.77;100.00;99459.94;5015070;28;19947;-81
2021/06/24 00:15:21;;;;;;;;;;;;;;;19.20;100.00;99449.50;5014851;28;19928;-81
2021/06/24 00:17:47;;;;;;;;;;;;;;;19.28;100.00;99455.13;5031581;28;20479;-82
2021/06/24 00:20:12;;;;;;;;;;;;;;;19.65;100.00;99452.84;5013962;28;19929;-82
2021/06/24 00:22:38;;;;;;;;;;;;;;;20.08;100.00;99447.56;5012993;28;19932;-81
2021/06/24 00:25:03;;;;;;;;;;;;;;;19.62;100.00;99451.28;5014294;28;20690;-81
2021/06/24 00:27:29;;;;;;;;;;;;;;;19.67;100.00;99450.16;5030510;28;19917;-81
2021/06/24 00:29:54;;;;;;;;;;;;;;;19.79;100.00;99441.56;5014050;28;19925;-81
2021/06/24 00:32:19;;;;;;;;;;;;;;;20.02;100.00;99433.09;5014960;28;20011;-83
2021/06/24 00:34:45;;;;;;;;;;;;;;;20.05;100.00;99443.38;5015419;28;19925;-83
2021/06/24 00:37:10;;;;;;;;;;;;;;;19.88;100.00;99440.16;5034433;28;19936;-83
2021/06/24 00:39:35;;;;;;;;;;;;;;;19.57;100.00;99437.66;5036925;28;19929;-83
2021/06/24 00:42:01;;;;;;;;;;;;;;;19.92;100.00;99447.69;5019294;28;19967;-83
2021/06/24 00:44:26;;;;;;;;;;;;;;;18.96;100.00;99446.63;5018996;28;20739;-82
2021/06/24 00:46:52;;;;;;;;;;;;;;;19.11;100.00;99450.94;5035038;28;20936;-83
2021/06/24 00:49:18;;;;;;;;;;;;;;;19.53;100.00;99441.41;5035864;28;19920;-83
2021/06/24 00:51:43;;;;;;;;;;;;;;;19.39;100.00;99439.63;5035378;28;20049;-82
2021/06/24 00:54:08;;;;;;;;;;;;;;;18.76;100.00;99445.97;5034795;28;19956;-83
2021/06/24 00:56:34;;;;;;;;;;;;;;;19.54;100.00;99434.38;5036917;28;20384;-82
2021/06/24 00:59:00;;;;;;;;;;;;;;;19.16;100.00;99438.44;5036269;28;19933;-82
2021/06/24 01:01:26;;;;;;;;;;;;;;;19.04;100.00;99428.69;5034512;28;20012;-82
2021/06/24 01:03:51;;;;;;;;;;;;;;;19.57;100.00;99434.22;5034478;28;19921;-82
2021/06/24 01:06:17;;;;;;;;;;;;;;;19.71;100.00;99436.84;5035209;28;19920;-82
2021/06/24 01:08:42;;;;;;;;;;;;;;;19.94;100.00;99443.22;5017050;28;19928;-82
2021/06/24 01:11:07;;;;;;;;;;;;;;;19.66;100.00;99441.47;5034299;28;19921;-82
2021/06/24 01:13:33;;;;;;;;;;;;;;;18.63;100.00;99442.41;5034980;28;19932;-82
2021/06/24 01:15:58;;;;;;;;;;;;;;;18.66;100.00;99449.22;5033854;28;20296;-83
2021/06/24 01:18:24;;;;;;;;;;;;;;;18.90;100.00;99437.38;5018022;28;20395;-83
2021/06/24 01:20:49;;;;;;;;;;;;;;;19.57;100.00;99435.06;5017302;28;19929;-82
2021/06/24 01:23:14;;;;;;;;;;;;;;;19.73;100.00;99437.56;5016619;28;19952;-82
2021/06/24 01:25:40;;;;;;;;;;;;;;;19.34;100.00;99435.59;5016895;28;19920;-82
2021/06/24 01:28:06;;;;;;;;;;;;;;;19.15;100.00;99434.13;5035922;28;20025;-82
2021/06/24 01:30:32;;;;;;;;;;;;;;;19.21;100.00;99430.31;5036794;28;19943;-81
2021/06/24 01:32:57;;;;;;;;;;;;;;;19.76;100.00;99431.31;5037586;28;20488;-81
2021/06/24 01:35:23;;;;;;;;;;;;;;;18.59;100.00;99427.88;5019699;28;20771;-81
2021/06/24 01:37:49;;;;;;;;;;;;;;;18.21;100.00;99420.47;5037643;28;19924;-82
2021/06/24 01:40:15;;;;;;;;;;;;;;;18.73;100.00;99414.03;5053848;28;19924;-82
2021/06/24 01:42:40;;;;;;;;;;;;;;;18.97;100.00;99427.41;5037483;28;20170;-82
2021/06/24 01:45:06;;;;;;;;;;;;;;;19.16;100.00;99425.38;5016637;28;19935;-81
2021/06/24 01:47:31;;;;;;;;;;;;;;;19.08;100.00;99419.75;5035984;28;20491;-81
2021/06/24 01:49:56;;;;;;;;;;;;;;;18.58;100.00;99413.97;5019627;28;20407;-81
2021/06/24 01:52:22;;;;;;;;;;;;;;;18.11;100.00;99421.91;5054818;28;20416;-82
2021/06/24 01:54:47;;;;;;;;;;;;;;;18.21;100.00;99412.66;5053421;28;19936;-82
2021/06/24 01:57:17;;;;;;;;;;;;;;;18.60;100.00;99408.69;5036678;28;20481;-82
2021/06/24 01:59:45;;;;;;;;;;;;;;;18.46;100.00;99403.44;5036603;28;19982;-81
2021/06/24 02:02:11;;;;;;;;;;;;;;;18.47;100.00;99405.09;5036073;28;19927;-82
2021/06/24 02:04:36;;;;;;;;;;;;;;;19.24;100.00;99398.78;5036187;28;19924;-82
2021/06/24 02:07:01;;;;;;;;;;;;;;;19.54;100.00;99409.09;5035670;28;20289;-82
2021/06/24 02:09:26;;;;;;;;;;;;;;;19.00;100.00;99409.78;5020169;28;19924;-82
2021/06/24 02:11:56;;;;;;;;;;;;;;;18.64;100.00;99396.31;5054439;28;19929;-81
2021/06/24 02:14:21;;;;;;;;;;;;;;;18.85;100.00;99394.22;5036272;28;19974;-82
2021/06/24 02:16:46;;;;;;;;;;;;;;;19.30;100.00;99392.38;5035669;28;20035;-82
2021/06/24 02:19:12;;;;;;;;;;;;;;;18.70;100.00;99399.41;5035063;28;19932;-81
2021/06/24 02:21:37;;;;;;;;;;;;;;;18.01;100.00;99407.72;5019440;28;19924;-82
2021/06/24 02:24:02;;;;;;;;;;;;;;;18.03;100.00;99403.28;5035460;28;21392;-81
2021/06/24 02:26:28;;;;;;;;;;;;;;;18.71;100.00;99390.63;5035939;28;20019;-82
2021/06/24 02:28:53;;;;;;;;;;;;;;;18.28;100.00;99393.13;5046236;28;19929;-83
2021/06/24 02:31:18;;;;;;;;;;;;;;;18.44;100.00;99392.25;5034588;28;19920;-83
2021/06/24 02:33:44;;;;;;;;;;;;;;;18.28;100.00;99398.34;5016451;28;20392;-82
2021/06/24 02:36:09;;;;;;;;;;;;;;;19.36;100.00;99395.44;5016327;28;20019;-83
2021/06/24 02:38:34;;;;;;;;;;;;;;;18.71;100.00;99395.84;5015316;28;20601;-82
2021/06/24 02:41:00;;;;;;;;;;;;;;;18.33;100.00;99388.47;5034766;28;20294;-82
2021/06/24 02:43:25;;;;;;;;;;;;;;;19.27;100.00;99384.69;5000549;28;20397;-82
2021/06/24 02:45:50;;;;;;;;;;;;;;;18.87;100.00;99390.59;5033202;28;19956;-82
2021/06/24 02:48:16;;;;;;;;;;;;;;;18.02;100.00;99396.38;5032476;28;20076;-82
2021/06/24 02:50:41;;;;;;;;;;;;;;;17.53;100.00;99403.34;5015389;28;20361;-82
2021/06/24 02:53:06;;;;;;;;;;;;;;;18.10;100.00;99395.00;5032428;28;19925;-82
2021/06/24 02:55:32;;;;;;;;;;;;;;;17.48;100.00;99400.16;5033625;28;19933;-82
2021/06/24 02:57:58;;;;;;;;;;;;;;;18.02;100.00;99398.97;5015235;28;19921;-82
2021/06/24 03:00:23;;;;;;;;;;;;;;;17.86;100.00;99402.47;4999419;28;19928;-81
2021/06/24 03:02:49;;;;;;;;;;;;;;;18.13;100.00;99392.25;5015165;28;20343;-82
2021/06/24 03:05:15;;;;;;;;;;;;;;;18.76;100.00;99388.56;5016150;28;19974;-82
2021/06/24 03:07:40;;;;;;;;;;;;;;;18.47;100.00;99387.66;5033582;28;19964;-82
2021/06/24 03:10:06;;;;;;;;;;;;;;;17.91;100.00;99389.16;5015430;28;20031;-82
2021/06/24 03:12:31;;;;;;;;;;;;;;;18.33;100.00;99390.25;5009911;28;19943;-82
2021/06/24 03:14:57;;;;;;;;;;;;;;;18.49;100.00;99385.81;5014542;28;19925;-82
2021/06/24 03:17:22;;;;;;;;;;;;;;;18.34;100.00;99384.97;5032496;28;19987;-83
2021/06/24 03:19:47;;;;;;;;;;;;;;;17.66;100.00;99390.50;4998713;28;19967;-82
2021/06/24 03:22:13;;;;;;;;;;;;;;;17.98;100.00;99386.13;5014172;28;19967;-82
2021/06/24 03:24:38;;;;;;;;;;;;;;;17.50;100.00;99392.25;4998747;28;19960;-83
2021/06/24 03:27:04;;;;;;;;;;;;;;;17.61;100.00;99384.72;5014123;28;20035;-82
2021/06/24 03:29:29;;;;;;;;;;;;;;;17.72;100.00;99384.09;5011181;28;20028;-82
2021/06/24 03:31:54;;;;;;;;;;;;;;;18.02;100.00;99383.34;5051421;28;19924;-82
2021/06/24 03:34:20;;;;;;;;;;;;;;;18.21;100.00;99381.38;5035416;28;20042;-81
2021/06/24 03:36:45;;;;;;;;;;;;;;;18.17;100.00;99377.25;5017234;28;19920;-82
2021/06/24 03:39:10;;;;;;;;;;;;;;;17.51;100.00;99381.75;5035404;28;19924;-81
2021/06/24 03:41:36;;;;;;;;;;;;;;;17.51;100.00;99376.53;5034151;28;20034;-84
2021/06/24 03:44:01;;;;;;;;;;;;;;;18.03;100.00;99372.00;5018773;28;19920;-88
2021/06/24 03:46:26;;;;;;;;;;;;;;;18.06;100.00;99375.25;5033948;28;20284;-85
2021/06/24 03:48:52;;;;;;;;;;;;;;;18.24;100.00;99377.75;5017922;28;20015;-85
2021/06/24 03:51:18;;;;;;;;;;;;;;;17.68;100.00;99378.22;5017604;28;19973;-84
2021/06/24 03:53:43;;;;;;;;;;;;;;;18.97;100.00;99375.19;5034656;28;19938;-85
2021/06/24 03:56:09;;;;;;;;;;;;;;;18.29;100.00;99367.88;5017056;28;19928;-85
2021/06/24 03:58:34;;;;;;;;;;;;;;;18.77;100.00;99369.44;5033899;28;19928;-84
2021/06/24 04:01:00;;;;;;;;;;;;;;;18.76;100.00;99367.69;5033615;28;19924;-85
2021/06/24 04:03:25;;;;;;;;;;;;;;;17.53;100.00;99372.09;5018831;28;19916;-85
2021/06/24 04:05:50;;;;;;;;;;;;;;;17.64;100.00;99378.47;5017637;28;20715;-85
2021/06/24 04:08:16;;;;;;;;;;;;;;;18.38;100.00;99370.81;5034654;28;19920;-85
2021/06/24 04:10:41;;;;;;;;;;;;;;;18.10;100.00;99373.31;5016804;28;19974;-85
2021/06/24 04:13:06;;;;;;;;;;;;;;;18.05;100.00;99370.97;5035127;28;20386;-81
2021/06/24 04:15:32;;;;;;;;;;;;;;;18.05;100.00;99370.97;5033715;28;19920;-81
2021/06/24 04:17:59;;;;;;;;;;;;;;;18.13;100.00;99368.78;5052276;28;19921;-81
2021/06/24 04:20:24;;;;;;;;;;;;;;;18.39;100.00;99367.28;5016821;28;19929;-81
2021/06/24 04:22:49;;;;;;;;;;;;;;;18.55;100.00;99369.00;5051016;28;19928;-81
2021/06/24 04:25:16;;;;;;;;;;;;;;;18.81;100.00;99375.28;5047534;28;19983;-81
2021/06/24 04:27:41;;;;;;;;;;;;;;;18.91;100.00;99370.38;5016754;28;19973;-80
2021/06/24 04:30:07;;;;;;;;;;;;;;;17.45;100.00;99379.50;5017010;28;19932;-81
2021/06/24 04:32:32;;;;;;;;;;;;;;;18.05;100.00;99375.34;5032198;28;19942;-80
2021/06/24 04:34:58;;;;;;;;;;;;;;;17.37;100.00;99379.06;5050050;28;20348;-80
2021/06/24 04:37:23;;;;;;;;;;;;;;;17.01;100.00;99382.69;5034152;28;19959;-80
2021/06/24 04:39:48;;;;;;;;;;;;;;;17.94;100.00;99382.00;5031931;28;19958;-80
2021/06/24 04:42:14;;;;;;;;;;;;;;;18.30;100.00;99373.03;5033421;28;19927;-80
2021/06/24 04:44:39;;;;;;;;;;;;;;;18.07;100.00;99374.34;5033474;28;20416;-81
2021/06/24 04:47:05;;;;;;;;;;;;;;;17.60;100.00;99379.56;5018140;28;19962;-80
2021/06/24 04:49:30;;;;;;;;;;;;;;;18.11;100.00;99375.00;5018557;28;19921;-80
2021/06/24 04:51:55;;;;;;;;;;;;;;;17.01;100.00;99374.88;5032917;28;19928;-80
2021/06/24 04:54:21;;;;;;;;;;;;;;;16.96;100.00;99369.06;5016936;28;20082;-81
2021/06/24 04:56:46;;;;;;;;;;;;;;;17.40;100.00;99373.66;5033542;28;19971;-80
2021/06/24 04:59:11;;;;;;;;;;;;;;;17.27;100.00;99377.88;5034438;28;19936;-80
2021/06/24 05:01:37;;;;;;;;;;;;;;;17.50;100.00;99374.88;5022112;28;20025;-79
2021/06/24 05:04:02;;;;;;;;;;;;;;;18.01;100.00;99363.44;5032068;28;19924;-80
2021/06/24 05:06:28;;;;;;;;;;;;;;;19.06;100.00;99364.19;5032574;28;20387;-80
2021/06/24 05:08:53;;;;;;;;;;;;;;;18.30;100.00;99366.97;5030334;28;20445;-80
2021/06/24 05:11:18;;;;;;;;;;;;;;;18.63;100.00;99366.75;5049896;28;19920;-80
2021/06/24 05:13:44;;;;;;;;;;;;;;;18.67;100.00;99363.03;5030638;28;20102;-80
2021/06/24 05:16:09;;;;;;;;;;;;;;;18.42;100.00;99363.63;5049071;28;19920;-80
2021/06/24 05:18:34;;;;;;;;;;;;;;;18.77;100.00;99364.22;5030842;28;20299;-80
2021/06/24 05:21:00;;;;;;;;;;;;;;;18.64;100.00;99363.22;5032693;28;19930;-80
2021/06/24 05:23:25;;;;;;;;;;;;;;;18.88;100.00;99362.72;5035467;28;19924;-79
2021/06/24 05:25:51;;;;;;;;;;;;;;;18.69;100.00;99366.38;5035341;28;19924;-80
2021/06/24 05:28:16;;;;;;;;;;;;;;;18.74;100.00;99360.91;5017830;28;19924;-79
2021/06/24 05:30:41;;;;;;;;;;;;;;;19.17;100.00;99361.75;5053292;28;20395;-80
2021/06/24 05:33:07;;;;;;;;;;;;;;;18.14;100.00;99367.00;5050983;28;19924;-79
2021/06/24 05:35:32;;;;;;;;;;;;;;;17.81;100.00;99372.31;5035640;28;19924;-80
2021/06/24 05:37:58;;;;;;;;;;;;;;;17.70;100.00;99370.34;5054262;28;19971;-80
2021/06/24 05:40:23;;;;;;;;;;;;;;;18.38;100.00;99364.75;5036479;28;19932;-80
2021/06/24 05:42:49;;;;;;;;;;;;;;;18.88;100.00;99362.72;5036212;28;19924;-80
2021/06/24 05:45:14;;;;;;;;;;;;;;;19.03;100.00;99369.63;5037683;28;19935;-80
2021/06/24 05:47:40;;;;;;;;;;;;;;;18.64;100.00;99363.22;5036622;28;19932;-79
2021/06/24 05:50:05;;;;;;;;;;;;;;;19.09;100.00;99364.03;5036407;28;19925;-79
2021/06/24 05:52:30;;;;;;;;;;;;;;;18.33;100.00;99365.00;5036639;28;19930;-79
2021/06/24 05:54:56;;;;;;;;;;;;;;;18.96;100.00;99360.47;5035738;28;19924;-80
2021/06/24 05:57:21;;;;;;;;;;;;;;;19.47;100.00;99358.19;5036551;28;19932;-79
2021/06/24 05:59:46;;;;;;;;;;;;;;;19.54;100.00;99364.69;5019144;28;19924;-80
2021/06/24 06:02:12;;;;;;;;;;;;;;;17.98;100.00;99374.88;5052032;28;19928;-79
2021/06/24 06:04:37;;;;;;;;;;;;;;;18.20;100.00;99374.50;5035691;28;20179;-79
2021/06/24 06:07:02;;;;;;;;;;;;;;;18.60;100.00;99369.53;5036117;28;20396;-79
2021/06/24 06:09:28;;;;;;;;;;;;;;;17.84;100.00;99386.06;5054164;28;19924;-79
2021/06/24 06:11:54;;;;;;;;;;;;;;;17.82;100.00;99377.50;5018906;28;19924;-80
2021/06/24 06:14:19;;;;;;;;;;;;;;;17.58;100.00;99387.47;5035837;28;19924;-79
2021/06/24 06:16:45;;;;;;;;;;;;;;;18.00;100.00;99382.59;5053220;28;19924;-79
2021/06/24 06:19:11;;;;;;;;;;;;;;;18.51;100.00;99378.75;5053957;28;20773;-79
2021/06/24 06:21:36;;;;;;;;;;;;;;;19.17;100.00;99372.22;5053533;28;19925;-79
2021/06/24 06:24:01;;;;;;;;;;;;;;;19.22;100.00;99375.38;5019198;28;20225;-79
2021/06/24 06:26:27;;;;;;;;;;;;;;;18.40;100.00;99378.53;5019618;28;20269;-79
2021/06/24 06:28:53;;;;;;;;;;;;;;;19.02;100.00;99378.34;5033862;28;20035;-79
2021/06/24 06:31:19;;;;;;;;;;;;;;;18.46;100.00;99374.75;5036317;28;19951;-79
2021/06/24 06:33:44;;;;;;;;;;;;;;;18.66;100.00;99377.03;5035613;28;19924;-80
2021/06/24 06:36:09;;;;;;;;;;;;;;;18.72;100.00;99376.63;5019281;28;20529;-79
2021/06/24 06:38:35;;;;;;;;;;;;;;;17.78;100.00;99376.78;5034677;28;19924;-79
2021/06/24 06:41:00;;;;;;;;;;;;;;;18.29;100.00;99376.56;5053577;28;20299;-80
2021/06/24 06:43:26;;;;;;;;;;;;;;;18.44;100.00;99376.59;5035313;28;20605;-80
2021/06/24 06:45:51;;;;;;;;;;;;;;;18.07;100.00;99378.72;5017994;28;20402;-79
2021/06/24 06:48:17;;;;;;;;;;;;;;;17.46;100.00;99382.94;5035922;28;19951;-79
2021/06/24 06:50:42;;;;;;;;;;;;;;;17.86;100.00;99381.63;5034175;28;19935;-79
2021/06/24 06:53:07;;;;;;;;;;;;;;;17.64;100.00;99386.28;5019302;28;19956;-79
2021/06/24 06:55:34;;;;;;;;;;;;;;;17.59;100.00;99380.50;5035279;28;20172;-79
2021/06/24 06:57:59;;;;;;;;;;;;;;;16.91;100.00;99384.09;5018838;28;19927;-80
2021/06/24 07:00:25;;;;;;;;;;;;;;;17.56;100.00;99390.16;5017309;28;19924;-79
2021/06/24 07:02:51;;;;;;;;;;;;;;;18.50;100.00;99379.69;5018105;28;20002;-80
2021/06/24 07:05:16;;;;;;;;;;;;;;;17.82;100.00;99387.09;5035014;28;20369;-79
2021/06/24 07:07:41;;;;;;;;;;;;;;;18.28;100.00;99387.06;5035778;28;20015;-79
2021/06/24 07:10:07;;;;;;;;;;;;;;;18.54;100.00;99385.56;5033535;28;19928;-80
2021/06/24 07:12:32;;;;;;;;;;;;;;;18.06;100.00;99387.44;5036733;28;19963;-79
2021/06/24 07:14:58;;;;;;;;;;;;;;;17.50;100.00;99395.69;5020008;28;19951;-85
2021/06/24 07:17:23;;;;;;;;;;;;;;;18.19;100.00;99383.22;5018795;28;20019;-80
2021/06/24 07:19:48;;;;;;;;;;;;;;;17.59;100.00;99396.13;5019661;28;20007;-80
2021/06/24 07:22:14;;;;;;;;;;;;;;;18.03;100.00;99395.44;5036163;28;19927;-80
2021/06/24 07:24:39;;;;;;;;;;;;;;;18.22;100.00;99388.25;5053228;28;19927;-80
2021/06/24 07:27:04;;;;;;;;;;;;;;;18.51;100.00;99389.19;5053508;28;20003;-80
2021/06/24 07:29:30;;;;;;;;;;;;;;;19.03;100.00;99385.28;5041379;28;19924;-80
2021/06/24 07:31:55;;;;;;;;;;;;;;;19.10;100.00;99386.56;5014822;28;19944;-80
2021/06/24 07:34:20;;;;;;;;;;;;;;;18.50;100.00;99386.69;5000103;28;21021;-80
2021/06/24 07:36:46;;;;;;;;;;;;;;;18.25;100.00;99388.09;5033071;28;19925;-80
2021/06/24 07:39:12;;;;;;;;;;;;;;;17.59;100.00;99393.53;5034569;28;19925;-80
2021/06/24 07:41:37;;;;;;;;;;;;;;;17.39;100.00;99402.41;5033516;28;19921;-80
2021/06/24 07:44:03;;;;;;;;;;;;;;;17.95;100.00;99391.53;5014663;28;19924;-79
2021/06/24 07:46:28;;;;;;;;;;;;;;;18.31;100.00;99392.94;5015671;28;19921;-80
2021/06/24 07:48:53;;;;;;;;;;;;;;;17.17;100.00;99394.91;5033530;28;20043;-80
2021/06/24 07:51:18;;;;;;;;;;;;;;;17.83;100.00;99386.97;5032647;28;19971;-80
2021/06/24 07:53:44;;;;;;;;;;;;;;;18.05;100.00;99391.84;5014733;28;19927;-79
2021/06/24 07:56:13;;;;;;;;;;;;;;;17.32;100.00;99388.88;5016341;28;19917;-80
2021/06/24 07:58:38;;;;;;;;;;;;;;;17.55;100.00;99396.28;4998727;28;19927;-79
2021/06/24 08:01:04;;;;;;;;;;;;;;;17.71;100.00;99390.25;5014577;28;20744;-80
2021/06/24 08:03:29;;;;;;;;;;;;;;;18.04;100.00;99391.91;5014827;28;20380;-79
2021/06/24 08:05:54;;;;;;;;;;;;;;;17.92;100.00;99388.22;5034143;28;19935;-79
2021/06/24 08:08:20;;;;;;;;;;;;;;;17.52;100.00;99386.03;5032428;28;20567;-81
2021/06/24 08:10:45;;;;;;;;;;;;;;;17.84;100.00;99386.06;5015641;28;19924;-79
2021/06/24 08:13:10;;;;;;;;;;;;;;;16.97;100.00;99386.38;5014485;28;19927;-82
2021/06/24 08:15:36;;;;;;;;;;;;;;;17.47;100.00;99385.47;5016174;28;19963;-79
2021/06/24 08:18:01;;;;;;;;;;;;;;;16.95;100.00;99377.81;5015263;28;20341;-79
2021/06/24 08:20:26;;;;;;;;;;;;;;;16.92;100.00;99381.44;5016088;28;20632;-78
2021/06/24 08:22:53;;;;;;;;;;;;;;;17.40;100.00;99384.09;5015294;28;19924;-78
2021/06/24 08:25:18;;;;;;;;;;;;;;;18.36;100.00;99370.06;5033649;28;19994;-80
2021/06/24 08:27:44;;;;;;;;;;;;;;;18.03;100.00;99372.00;5032962;28;19921;-80
2021/06/24 08:30:09;;;;;;;;;;;;;;;16.88;100.00;99382.50;5033124;28;19987;-79
2021/06/24 08:32:37;;;;;;;;;;;;;;;17.53;100.00;99384.28;5033420;28;19932;-79
2021/06/24 08:35:02;;;;;;;;;;;;;;;17.93;100.00;99375.13;5053610;28;19921;-79
2021/06/24 08:37:27;;;;;;;;;;;;;;;17.40;100.00;99373.66;5035086;28;19926;-79
2021/06/24 08:39:53;;;;;;;;;;;;;;;17.56;100.00;99384.09;5053105;28;20407;-79
2021/06/24 08:42:18;;;;;;;;;;;;;;;17.70;100.00;99383.38;5052222;28;20849;-79
2021/06/24 08:44:46;;;;;;;;;;;;;;;17.45;100.00;99379.50;5035296;28;20550;-80
2021/06/24 08:47:12;;;;;;;;;;;;;;;17.21;100.00;99380.81;5053591;28;19997;-79
2021/06/24 08:49:38;;;;;;;;;;;;;;;18.00;100.00;99373.03;5035635;28;19926;-80
2021/06/24 08:52:03;;;;;;;;;;;;;;;17.78;100.00;99382.00;5034999;28;19920;-79
2021/06/24 08:54:28;;;;;;;;;;;;;;;18.30;100.00;99382.63;5034765;28;20351;-80
2021/06/24 08:56:54;;;;;;;;;;;;;;;17.29;100.00;99389.06;5056426;28;20375;-79
2021/06/24 08:59:19;;;;;;;;;;;;;;;16.63;100.00;99395.06;5038110;28;19920;-79
2021/06/24 09:01:45;;;;;;;;;;;;;;;17.36;100.00;99395.59;5056127;28;19970;-80
2021/06/24 09:04:14;;;;;;;;;;;;;;;16.90;100.00;99395.41;5057537;28;20339;-80
2021/06/24 09:06:39;;;;;;;;;;;;;;;16.37;100.00;99401.53;5056206;28;19920;-79
2021/06/24 09:09:05;;;;;;;;;;;;;;;16.88;100.00;99392.91;5057579;28;19916;-80
2021/06/24 09:11:30;;;;;;;;;;;;;;;16.80;100.00;99392.44;5056140;28;19920;-80
2021/06/24 09:14:03;;;;;;;;;;;;;;;16.90;100.00;99395.41;5056647;28;20129;-79
2021/06/24 09:16:40;;;;;;;;;;;;;;;17.13;100.00;99391.63;5038036;28;19928;-79
2021/06/24 09:19:16;;;;;;;;;;;;;;;16.75;100.00;99388.38;5022157;28;19989;-79
2021/06/24 09:21:42;;;;;;;;;;;;;;;17.59;100.00;99391.75;5056356;28;19928;-79
2021/06/24 09:24:21;;;;;;;;;;;;;;;17.22;100.00;99385.94;5056061;28;20312;-79
2021/06/24 09:26:46;;;;;;;;;;;;;;;16.75;100.00;99394.41;5038456;28;19963;-80
2021/06/24 09:29:16;;;;;;;;;;;;;;;16.75;100.00;99397.00;5055801;28;20026;-78
2021/06/24 09:31:44;;;;;;;;;;;;;;;17.25;100.00;99397.94;5055370;28;20685;-80
2021/06/24 09:34:11;;;;;;;;;;;;;;;17.46;100.00;99396.78;5056945;28;19927;-80
2021/06/24 09:36:37;;;;;;;;;;;;;;;17.46;100.00;99404.59;5038567;28;19931;-80
2021/06/24 09:39:26;;;;;;;;;;;;;;;17.37;100.00;99394.66;5038761;28;20164;-80
2021/06/24 09:41:56;;;;;;;;;;;;;;;16.97;100.00;99402.00;5056725;28;19921;-80
2021/06/24 09:44:23;;;;;;;;;;;;;;;17.49;100.00;99393.16;5022703;28;19920;-80
2021/06/24 09:46:48;;;;;;;;;;;;;;;17.74;100.00;99387.47;5021618;28;19926;-80
2021/06/24 09:49:24;;;;;;;;;;;;;;;18.16;100.00;99389.47;5036042;28;20110;-80
2021/06/24 09:51:51;;;;;;;;;;;;;;;18.43;100.00;99382.72;5055425;28;19926;-80
2021/06/24 09:54:17;;;;;;;;;;;;;;;18.20;100.00;99387.53;5054951;28;19920;-80
2021/06/24 09:56:52;;;;;;;;;;;;;;;18.01;100.00;99394.69;5037256;28;19968;-80
2021/06/24 09:59:18;;;;;;;;;;;;;;;18.24;100.00;99389.00;5037423;28;20053;-80
2021/06/24 10:01:44;;;;;;;;;;;;;;;17.77;100.00;99398.56;5054473;28;20424;-80
2021/06/24 10:04:19;;;;;;;;;;;;;;;17.70;100.00;99394.63;5036653;28;19978;-79
2021/06/24 10:06:45;;;;;;;;;;;;;;;17.21;100.00;99393.81;5054421;28;19920;-80
2021/06/24 10:09:11;;;;;;;;;;;;;;;17.71;100.00;99393.69;5037512;28;20064;-80
2021/06/24 10:11:36;;;;;;;;;;;;;;;17.65;100.00;99388.81;5054862;28;19947;-80
2021/06/24 10:14:02;;;;;;;;;;;;;;;18.07;100.00;99394.38;5054590;28;20126;-80
2021/06/24 10:16:27;;;;;;;;;;;;;;;17.74;100.00;99387.47;5020778;28;19974;-80
2021/06/24 10:18:52;;;;;;;;;;;;;;;18.19;100.00;99389.28;5037310;28;20387;-80
2021/06/24 10:21:18;;;;;;;;;;;;;;;18.01;100.00;99379.06;5053492;28;20365;-80
2021/06/24 10:23:53;;;;;;;;;;;;;;;18.31;100.00;99379.91;5055158;28;19943;-80
2021/06/24 10:26:19;;;;;;;;;;;;;;;17.56;100.00;99386.69;5055417;28;20402;-80
2021/06/24 10:28:44;;;;;;;;;;;;;;;17.52;100.00;99388.66;5048217;28;20048;-80
2021/06/24 10:31:28;;;;;;;;;;;;;;;18.80;100.00;99376.22;5000569;28;19924;-80
2021/06/24 10:33:55;;;;;;;;;;;;;;;18.88;100.00;99380.97;5017177;28;19921;-80
2021/06/24 10:36:20;;;;;;;;;;;;;;;18.41;100.00;99382.00;5035241;28;19920;-82
2021/06/24 10:38:50;;;;;;;;;;;;;;;17.07;100.00;99386.75;5017607;28;19931;-82
2021/06/24 10:41:16;;;;;;;;;;;;;;;18.87;100.00;99380.16;5034762;28;19962;-82
2021/06/24 10:43:49;;;;;;;;;;;;;;;17.72;100.00;99378.88;5016506;28;20011;-83
2021/06/24 10:46:16;;;;;;;;;;;;;;;17.69;100.00;99386.88;5016982;28;20420;-82
2021/06/24 10:48:42;;;;;;;;;;;;;;;18.23;100.00;99386.50;5000912;28;19928;-82
2021/06/24 10:51:11;;;;;;;;;;;;;;;18.33;100.00;99380.66;5016800;28;19921;-82
2021/06/24 10:53:42;;;;;;;;;;;;;;;18.95;100.00;99374.44;5016564;28;20368;-82
2021/06/24 10:56:20;;;;;;;;;;;;;;;18.97;100.00;99372.59;5016488;28;19923;-82
2021/06/24 10:58:45;;;;;;;;;;;;;;;17.73;100.00;99385.78;5015945;28;19920;-82
2021/06/24 11:01:11;;;;;;;;;;;;;;;18.53;100.00;99376.91;5015840;28;19936;-82
2021/06/24 11:03:37;;;;;;;;;;;;;;;18.58;100.00;99363.56;5000027;28;19920;-83
2021/06/24 11:06:08;;;;;;;;;;;;;;;19.47;100.00;99373.00;4997993;28;19917;-82
2021/06/24 11:08:34;;;;;;;;;;;;;;;18.30;100.00;99369.59;5033125;28;20373;-83
2021/06/24 11:10:59;;;;;;;;;;;;;;;18.03;100.00;99382.44;5015155;28;19921;-81
2021/06/24 11:13:43;;;;;;;;;;;;;;;17.97;100.00;99379.25;5032042;28;19920;-83
2021/06/24 11:16:18;;;;;;;;;;;;;;;18.65;100.00;99377.94;5014584;28;19979;-82
2021/06/24 11:18:47;;;;;;;;;;;;;;;18.00;100.00;99380.84;5015895;28;20400;-82
2021/06/24 11:21:13;;;;;;;;;;;;;;;18.21;100.00;99376.16;5015496;28;20213;-82
2021/06/24 11:23:44;;;;;;;;;;;;;;;18.01;100.00;99384.28;5016074;28;19991;-82
2021/06/24 11:26:12;;;;;;;;;;;;;;;19.02;100.00;99378.34;5033315;28;19924;-82
2021/06/24 11:28:47;;;;;;;;;;;;;;;19.48;100.00;99372.94;5038653;28;20317;-82
2021/06/24 11:31:14;;;;;;;;;;;;;;;18.81;100.00;99375.28;5052709;28;19927;-82
2021/06/24 11:33:54;;;;;;;;;;;;;;;18.22;100.00;99377.81;5035756;28;19920;-80
2021/06/24 11:36:19;;;;;;;;;;;;;;;18.49;100.00;99374.56;5036132;28;20814;-80
2021/06/24 11:38:46;;;;;;;;;;;;;;;18.17;100.00;99377.25;5035476;28;19920;-80
2021/06/24 11:41:11;;;;;;;;;;;;;;;18.18;100.00;99378.94;5018294;28;20376;-81
2021/06/24 11:43:37;;;;;;;;;;;;;;;18.24;100.00;99373.38;5035493;28;19953;-78
2021/06/24 11:46:02;;;;;;;;;;;;;;;18.43;100.00;99365.34;5034163;28;20178;-82
2021/06/24 11:48:28;;;;;;;;;;;;;;;18.37;100.00;99365.69;5036027;28;19959;-83
2021/06/24 12:04:46;;;;;;;;;;;;;;;19.48;100.00;99370.31;5049832;28;20438;-81
2021/06/24 12:07:11;;;;;;;;;;;;;;;19.90;100.00;99365.09;5048148;28;19924;-82
2021/06/24 12:09:41;;;;;;;;;;;;;;;19.95;100.00;99360.41;5032556;28;19932;-84
2021/06/24 12:12:06;;;;;;;;;;;;;;;20.10;100.00;99361.19;5017524;28;19920;-82
2021/06/24 12:14:33;;;;;;;;;;;;;;;18.59;100.00;99360.06;5050903;28;19927;-82
2021/06/24 12:17:14;;;;;;;;;;;;;;;19.68;100.00;99360.38;5032063;28;19920;-82
2021/06/24 12:19:40;;;;;;;;;;;;;;;19.26;100.00;99359.53;5051251;28;19920;-82
2021/06/24 12:22:05;;;;;;;;;;;;;;;18.23;100.00;99370.88;5016007;28;19927;-82
2021/06/24 12:24:33;;;;;;;;;;;;;;;20.29;100.00;99360.81;5017437;28;20023;-83
2021/06/24 12:27:13;;;;;;;;;;;;;;;18.68;100.00;99364.72;5034045;28;19921;-85
2021/06/24 12:29:41;;;;;;;;;;;;;;;19.06;100.00;99364.19;5021224;28;19954;-82
2021/06/24 12:32:07;;;;;;;;;;;;;;;19.91;100.00;99356.28;5051306;28;19920;-82
2021/06/24 12:34:33;;;;;;;;;;;;;;;20.30;100.00;99355.47;5033601;28;19947;-84
2021/06/24 12:36:58;;;;;;;;;;;;;;;18.98;100.00;99353.41;5032421;28;20908;-83
2021/06/24 12:39:23;;;;;;;;;;;;;;;19.53;100.00;99357.78;5013458;28;19956;-85
2021/06/24 12:41:49;;;;;;;;;;;;;;;19.69;100.00;99351.63;5030621;28;19978;-85
2021/06/24 12:44:14;;;;;;;;;;;;;;;19.47;100.00;99347.72;5031732;28;20011;-85